首页
METAR-TAF:

METAR-TAF

机场 :

Edmonton/Villeneuve Airport

Villeneuve, 艾伯塔, 加拿大

纬度: 53-40-06N, 经度: 113-51-08W, 海拔: 688米

当前天气观测

该预报发布于33分钟前的23:00 UTC
风速18节,风向西转西北,有时为33节阵风
温度 3°C
湿度 44%
气压 1011 hPa
能見度: 14.5公里
少量云层高于5500英尺
多云层高于7200英尺
多云层高于8400英尺

METAR: CZVL 072300Z AUTO 30018G33KT 9SM FEW055 BKN072 BKN084 03/M08 A2984 RMK SLP133

时间: 17:33 (23:33 UTC)

预报

该预报发布于5小时和53分钟前的17:40 UTC
预报有效从07日的 18点(UTC)到 08日的 06点(UTC)
风速20节,风向西转西北,有时为30节阵风
能見度: 10公里
天空无云
从 08日的 0400点(UTC)
风速12节,风向西转西北
能見度: 10公里
散云层高于6000英尺

TAF: CZVL 071740Z 0718/0806 29020G30KT P6SM SKC FM080400 30012KT P6SM SCT060 RMK FCST BASED ON AUTO OBS. NXT FCST BY 080000Z

超过4000个机场的气象观测和天气预报(METAR&TAF报告)。

可查询的气象台以黄色和红色小点在地图上表示。

将鼠标移到小点上方,可查看气象台名称。

然后点击查看天气观测和预报。

如需切换地图:点击带黑十字的绿色按钮放大地图;点击带横线的绿色按钮缩小地图;或者点击绿色箭头查看邻近地区的地图。


METAR-TAF: